createdAt,value
2022-08-08T00:01:13.119Z,102106.09
2022-08-08T00:04:28.328Z,102104.38
2022-08-08T00:07:12.525Z,102100.00
2022-08-08T00:09:55.253Z,102103.59
2022-08-08T00:12:31.671Z,102096.53
2022-08-08T00:15:24.371Z,102087.59
2022-08-08T00:18:21.171Z,102093.09
2022-08-08T00:20:58.593Z,102093.09
2022-08-08T00:23:43.349Z,102095.00
2022-08-08T00:26:30.025Z,102099.47
2022-08-08T00:29:17.498Z,102102.25
2022-08-08T00:32:20.244Z,102091.56
2022-08-08T00:35:21.102Z,102082.75
2022-08-08T00:38:32.212Z,102073.06
2022-08-08T00:42:08.607Z,102077.44
2022-08-08T00:45:29.352Z,102082.75
2022-08-08T00:48:29.429Z,102081.13
2022-08-08T00:51:08.265Z,102083.91
2022-08-08T00:54:13.804Z,102080.47
2022-08-08T00:57:12.769Z,102080.47
2022-08-08T01:00:31.189Z,102070.72
2022-08-08T01:03:57.546Z,102066.31
2022-08-08T01:06:27.426Z,102063.66
2022-08-08T01:09:34.955Z,102073.50
2022-08-08T01:12:37.053Z,102076.22
2022-08-08T01:15:53.293Z,102076.22
2022-08-08T01:18:52.909Z,102073.66
2022-08-08T01:22:12.195Z,102079.00
2022-08-08T01:25:00.373Z,102077.28
2022-08-08T01:27:46.356Z,102085.28
2022-08-08T01:30:25.624Z,102087.06
2022-08-08T01:33:27.592Z,102087.06
2022-08-08T01:35:54.642Z,102087.06
2022-08-08T01:38:37.113Z,102079.16
2022-08-08T01:41:18.522Z,102097.91
2022-08-08T01:44:03.644Z,102103.25
2022-08-08T01:46:41.354Z,102104.13
2022-08-08T01:49:22.758Z,102108.59
2022-08-08T01:52:29.287Z,102101.56
2022-08-08T01:55:25.813Z,102102.50
2022-08-08T01:58:10.815Z,102099.91
2022-08-08T02:01:17.312Z,102102.59
2022-08-08T02:03:54.629Z,102113.25
2022-08-08T02:06:36.928Z,102100.78
2022-08-08T02:09:17.955Z,102100.84
2022-08-08T02:11:59.141Z,102091.22
2022-08-08T02:14:55.259Z,102089.41
2022-08-08T02:17:44.360Z,102091.13
2022-08-08T02:21:00.851Z,102087.50
2022-08-08T02:23:35.407Z,102093.78
2022-08-08T02:26:17.064Z,102088.53
2022-08-08T02:28:59.540Z,102092.94
2022-08-08T02:32:05.487Z,102094.81
2022-08-08T02:35:07.817Z,102089.47
2022-08-08T02:37:52.278Z,102100.16
2022-08-08T02:40:29.845Z,102095.78
2022-08-08T02:44:37.276Z,102102.91
2022-08-08T02:47:10.846Z,102103.69
2022-08-08T02:50:19.312Z,102109.13
2022-08-08T02:53:24.489Z,102100.25
2022-08-08T02:56:15.874Z,102111.97
2022-08-08T02:59:25.944Z,102109.28
2022-08-08T03:02:30.404Z,102111.03
2022-08-08T03:05:45.442Z,102105.75
2022-08-08T03:08:38.202Z,102104.88
2022-08-08T03:11:25.735Z,102104.97
2022-08-08T03:15:59.703Z,102105.84
2022-08-08T03:17:39.479Z,102100.59
2022-08-08T03:20:13.852Z,102113.91
2022-08-08T03:22:47.924Z,102121.06
2022-08-08T03:25:18.669Z,102112.28
2022-08-08T03:27:57.705Z,102116.84
2022-08-08T03:30:24.887Z,102113.25
2022-08-08T03:33:56.745Z,102122.19
2022-08-08T03:35:58.963Z,102110.66
2022-08-08T03:38:57.107Z,102115.91
2022-08-08T03:41:43.119Z,102121.25
2022-08-08T03:44:00.427Z,102119.53
2022-08-08T03:46:32.621Z,102125.78
2022-08-08T03:49:09.854Z,102121.41
2022-08-08T03:51:57.204Z,102118.81
2022-08-08T03:54:41.699Z,102127.69
2022-08-08T03:58:29.983Z,102126.91
2022-08-08T04:00:11.336Z,102124.25
2022-08-08T04:02:51.808Z,102124.25
2022-08-08T04:05:28.209Z,102131.38
2022-08-08T04:07:57.900Z,102131.47
2022-08-08T04:10:26.022Z,102137.66
2022-08-08T04:13:00.012Z,102135.06
2022-08-08T04:15:38.355Z,102134.22
2022-08-08T04:18:06.205Z,102137.75
2022-08-08T04:20:36.237Z,102124.56
2022-08-08T04:23:07.770Z,102130.69
2022-08-08T04:25:38.405Z,102128.97
2022-08-08T04:28:36.882Z,102128.00
2022-08-08T04:30:55.295Z,102131.66
2022-08-08T04:33:24.619Z,102127.25
2022-08-08T04:35:53.925Z,102128.22
2022-08-08T04:38:23.193Z,102128.22
2022-08-08T04:40:51.763Z,102130.94
2022-08-08T04:43:22.552Z,102142.47
2022-08-08T04:45:59.524Z,102140.72
2022-08-08T04:48:26.432Z,102140.72
2022-08-08T04:50:53.509Z,102139.88
2022-08-08T04:54:27.325Z,102144.38
2022-08-08T04:56:07.638Z,102148.75
2022-08-08T04:58:35.131Z,102147.97
2022-08-08T05:01:09.064Z,102144.44
2022-08-08T05:04:11.317Z,102150.63
2022-08-08T05:06:28.954Z,102156.38
2022-08-08T05:09:02.968Z,102148.16
2022-08-08T05:11:39.399Z,102162.03
2022-08-08T05:14:12.176Z,102160.63
2022-08-08T05:16:52.889Z,102165.31
2022-08-08T05:20:12.278Z,102161.16
2022-08-08T05:22:13.738Z,102163.28
2022-08-08T05:24:48.505Z,102157.72
2022-08-08T05:27:16.042Z,102161.94
2022-08-08T05:29:42.973Z,102156.47
2022-08-08T05:32:09.933Z,102154.50
2022-08-08T05:34:49.185Z,102159.75
2022-08-08T05:37:39.268Z,102165.06
2022-08-08T05:40:14.656Z,102162.34
2022-08-08T05:42:46.021Z,102162.19
2022-08-08T05:45:25.372Z,102167.47
2022-08-08T05:48:08.123Z,102166.72
2022-08-08T05:50:36.550Z,102172.25
2022-08-08T05:53:53.660Z,102167.06
2022-08-08T05:56:10.633Z,102175.47
2022-08-08T05:58:58.006Z,102180.28
2022-08-08T06:01:56.612Z,102178.03
2022-08-08T06:04:24.507Z,102179.69
2022-08-08T06:07:01.614Z,102169.63
2022-08-08T06:09:58.936Z,102172.13
2022-08-08T06:12:30.052Z,102179.97
2022-08-08T06:15:02.774Z,102183.47
2022-08-08T06:17:51.333Z,102191.09
2022-08-08T06:20:20.968Z,102185.78
2022-08-08T06:22:49.303Z,102194.59
2022-08-08T06:25:18.417Z,102192.69
2022-08-08T06:28:07.434Z,102196.13
2022-08-08T06:30:36.331Z,102204.06
2022-08-08T06:33:13.164Z,102198.53
2022-08-08T06:36:07.821Z,102209.91
2022-08-08T06:38:39.305Z,102206.03
2022-08-08T06:41:13.212Z,102206.44
2022-08-08T06:43:47.702Z,102201.63
2022-08-08T06:46:24.346Z,102202.44
2022-08-08T06:48:51.423Z,102200.44
2022-08-08T06:51:22.402Z,102203.88
2022-08-08T06:53:51.041Z,102201.22
2022-08-08T06:56:24.382Z,102202.88
2022-08-08T06:58:51.442Z,102203.66
2022-08-08T07:02:18.075Z,102208.84
2022-08-08T07:04:40.395Z,102209.66
2022-08-08T07:07:11.561Z,102205.97
2022-08-08T07:10:08.260Z,102212.88
2022-08-08T07:12:43.041Z,102216.31
2022-08-08T07:15:31.994Z,102219.75
2022-08-08T07:18:36.064Z,102221.50
2022-08-08T07:21:18.379Z,102215.22
2022-08-08T07:24:09.693Z,102212.41
2022-08-08T07:26:40.394Z,102214.97
2022-08-08T07:29:08.096Z,102214.88
2022-08-08T07:31:38.799Z,102209.47
2022-08-08T07:34:08.770Z,102216.53
2022-08-08T07:36:42.042Z,102209.31
2022-08-08T07:39:22.556Z,102206.56
2022-08-08T07:42:05.042Z,102210.00
2022-08-08T07:44:37.421Z,102213.47
2022-08-08T07:47:05.553Z,102209.84
2022-08-08T07:49:32.623Z,102212.28
2022-08-08T07:52:02.782Z,102215.78
2022-08-08T07:54:43.598Z,102208.72
2022-08-08T07:57:27.247Z,102215.72
2022-08-08T07:59:59.907Z,102212.00
2022-08-08T08:02:53.268Z,102215.03
2022-08-08T08:05:45.273Z,102220.16
2022-08-08T08:08:34.151Z,102212.81
2022-08-08T08:11:04.291Z,102211.81
2022-08-08T08:14:07.600Z,102203.16
2022-08-08T08:16:40.966Z,102215.00
2022-08-08T08:19:14.825Z,102216.09
2022-08-08T08:21:57.790Z,102208.00
2022-08-08T08:24:30.570Z,102215.00
2022-08-08T08:27:00.122Z,102209.47
2022-08-08T08:29:30.438Z,102214.81
2022-08-08T08:32:03.191Z,102204.22
2022-08-08T08:34:32.327Z,102196.13
2022-08-08T08:37:08.505Z,102200.31
2022-08-08T08:40:00.278Z,102208.19
2022-08-08T08:42:32.025Z,102208.94
2022-08-08T08:45:21.432Z,102204.22
2022-08-08T08:47:58.383Z,102202.22
2022-08-08T08:50:33.770Z,102205.75
2022-08-08T08:53:27.511Z,102206.44
2022-08-08T08:55:59.259Z,102214.38
2022-08-08T08:58:41.581Z,102223.16
2022-08-08T09:01:13.121Z,102219.53
2022-08-08T09:03:47.105Z,102218.59
2022-08-08T09:06:34.155Z,102212.22
2022-08-08T09:09:26.215Z,102204.78
2022-08-08T09:12:07.631Z,102209.16
2022-08-08T09:14:42.097Z,102215.19
2022-08-08T09:17:17.363Z,102210.72
2022-08-08T09:22:00.131Z,102218.47
2022-08-08T09:22:35.731Z,102205.03
2022-08-08T09:25:04.737Z,102203.97
2022-08-08T09:27:56.979Z,102202.06
2022-08-08T09:30:20.144Z,102195.69
2022-08-08T09:33:11.856Z,102200.16
2022-08-08T09:35:49.059Z,102203.59
2022-08-08T09:38:31.856Z,102209.06
2022-08-08T09:41:05.037Z,102198.34
2022-08-08T09:43:40.864Z,102201.03
2022-08-08T09:46:31.096Z,102199.28
2022-08-08T09:49:18.211Z,102197.41
2022-08-08T09:52:06.719Z,102198.34
2022-08-08T09:54:45.772Z,102203.69
2022-08-08T09:57:19.034Z,102193.09
2022-08-08T10:00:21.035Z,102200.91
2022-08-08T10:02:41.089Z,102187.66
2022-08-08T10:05:15.167Z,102183.34
2022-08-08T10:07:51.549Z,102193.19
2022-08-08T10:10:50.101Z,102183.25
2022-08-08T10:13:26.067Z,102178.63
2022-08-08T10:16:01.921Z,102178.78
2022-08-08T10:18:35.772Z,102166.16
2022-08-08T10:21:26.161Z,102171.50
2022-08-08T10:23:59.991Z,102174.28
2022-08-08T10:26:57.268Z,102177.84
2022-08-08T10:29:38.382Z,102171.50
2022-08-08T10:32:33.987Z,102168.09
2022-08-08T10:35:11.862Z,102183.19
2022-08-08T10:38:07.983Z,102185.16
2022-08-08T10:40:38.480Z,102171.91
2022-08-08T10:43:07.194Z,102177.25
2022-08-08T10:45:56.411Z,102176.38
2022-08-08T10:48:38.869Z,102176.56
2022-08-08T10:51:30.873Z,102174.94
2022-08-08T10:54:00.219Z,102184.84
2022-08-08T10:56:36.382Z,102182.94
2022-08-08T10:59:14.107Z,102185.81
2022-08-08T11:01:49.347Z,102189.41
2022-08-08T11:04:39.292Z,102185.09
2022-08-08T11:07:07.229Z,102182.53
2022-08-08T11:09:35.252Z,102181.78
2022-08-08T11:12:12.548Z,102182.72
2022-08-08T11:14:57.365Z,102175.56
2022-08-08T11:17:59.934Z,102171.25
2022-08-08T11:20:18.070Z,102177.53
2022-08-08T11:22:54.323Z,102177.47
2022-08-08T11:25:53.057Z,102172.97
2022-08-08T11:28:16.886Z,102178.13
2022-08-08T11:30:50.285Z,102179.09
2022-08-08T11:33:53.135Z,102187.13
2022-08-08T11:36:13.431Z,102187.97
2022-08-08T11:38:53.937Z,102190.72
2022-08-08T11:41:24.406Z,102189.97
2022-08-08T11:43:53.925Z,102185.56
2022-08-08T11:46:28.025Z,102188.06
2022-08-08T11:48:58.380Z,102178.25
2022-08-08T11:51:29.910Z,102185.22
2022-08-08T11:54:27.167Z,102183.22
2022-08-08T11:56:58.323Z,102179.69
2022-08-08T12:00:01.306Z,102191.91
2022-08-08T12:02:41.697Z,102182.94
2022-08-08T12:05:12.514Z,102191.72
2022-08-08T12:07:50.299Z,102188.13
2022-08-08T12:10:24.968Z,102184.41
2022-08-08T12:13:01.145Z,102172.75
2022-08-08T12:15:42.704Z,102180.59
2022-08-08T12:18:27.749Z,102174.38
2022-08-08T12:20:58.769Z,102179.66
2022-08-08T12:23:42.736Z,102177.91
2022-08-08T12:26:41.649Z,102176.03
2022-08-08T12:29:42.068Z,102178.63
2022-08-08T12:32:20.115Z,102167.75
2022-08-08T12:35:04.161Z,102173.00
2022-08-08T12:37:41.586Z,102167.59
2022-08-08T12:40:23.747Z,102162.88
2022-08-08T12:42:52.817Z,102166.34
2022-08-08T12:45:58.516Z,102165.38
2022-08-08T12:48:38.064Z,102173.22
2022-08-08T12:51:11.448Z,102173.91
2022-08-08T12:53:58.773Z,102158.72
2022-08-08T12:56:38.071Z,102170.25
2022-08-08T12:59:27.193Z,102176.59
2022-08-08T13:01:56.845Z,102179.25
2022-08-08T13:04:26.993Z,102184.44
2022-08-08T13:07:11.947Z,102188.97
2022-08-08T13:10:04.843Z,102189.78
2022-08-08T13:12:44.472Z,102190.59
2022-08-08T13:15:19.516Z,102185.06
2022-08-08T13:17:54.046Z,102181.47
2022-08-08T13:20:45.515Z,102179.66
2022-08-08T13:23:41.782Z,102180.53
2022-08-08T13:26:14.661Z,102184.03
2022-08-08T13:28:45.920Z,102191.09
2022-08-08T13:31:17.137Z,102187.28
2022-08-08T13:33:49.715Z,102181.09
2022-08-08T13:36:25.741Z,102180.03
2022-08-08T13:38:53.611Z,102176.41
2022-08-08T13:41:21.811Z,102185.22
2022-08-08T13:43:49.788Z,102180.69
2022-08-08T13:46:27.098Z,102175.28
2022-08-08T13:49:11.437Z,102183.31
2022-08-08T13:52:35.759Z,102184.06
2022-08-08T13:55:06.554Z,102197.31
2022-08-08T13:58:07.049Z,102193.03
2022-08-08T14:00:23.399Z,102188.66
2022-08-08T14:03:07.682Z,102194.75
2022-08-08T14:05:57.642Z,102197.44
2022-08-08T14:08:29.878Z,102188.47
2022-08-08T14:11:01.776Z,102194.56
2022-08-08T14:13:34.311Z,102181.19
2022-08-08T14:16:15.873Z,102184.81
2022-08-08T14:18:58.179Z,102181.19
2022-08-08T14:21:48.836Z,102175.66
2022-08-08T14:24:34.830Z,102175.66
2022-08-08T14:27:07.884Z,102179.09
2022-08-08T14:29:40.325Z,102168.41
2022-08-08T14:32:12.767Z,102170.97
2022-08-08T14:34:53.542Z,102176.31
2022-08-08T14:37:27.823Z,102170.13
2022-08-08T14:40:05.971Z,102170.97
2022-08-08T14:42:54.462Z,102176.31
2022-08-08T14:45:33.101Z,102181.78
2022-08-08T14:48:16.489Z,102184.34
2022-08-08T14:50:46.932Z,102191.53
2022-08-08T14:53:16.575Z,102203.19
2022-08-08T14:55:45.104Z,102192.59
2022-08-08T14:58:19.726Z,102195.16
2022-08-08T15:00:49.435Z,102189.81
2022-08-08T15:03:17.501Z,102200.50
2022-08-08T15:05:54.297Z,102204.97
2022-08-08T15:08:35.252Z,102204.13
2022-08-08T15:11:19.195Z,102207.59
2022-08-08T15:14:03.008Z,102205.84
2022-08-08T15:16:34.241Z,102202.31
2022-08-08T15:19:02.476Z,102204.97
2022-08-08T15:21:30.167Z,102203.94
2022-08-08T15:23:58.042Z,102209.47
2022-08-08T15:26:28.955Z,102212.25
2022-08-08T15:28:57.366Z,102207.00
2022-08-08T15:31:55.527Z,102204.34
2022-08-08T15:34:28.795Z,102197.25
2022-08-08T15:37:04.993Z,102203.53
2022-08-08T15:39:38.196Z,102205.28
2022-08-08T15:42:10.259Z,102202.59
2022-08-08T15:44:40.637Z,102207.09
2022-08-08T15:47:16.047Z,102218.66
2022-08-08T15:49:49.272Z,102220.38
2022-08-08T15:52:18.384Z,102209.69
2022-08-08T15:54:51.609Z,102218.66
2022-08-08T15:57:21.970Z,102213.31
2022-08-08T16:00:25.344Z,102211.50
2022-08-08T16:02:44.588Z,102213.31
2022-08-08T16:05:23.541Z,102205.28
2022-08-08T16:07:53.875Z,102208.88
2022-08-08T16:13:04.199Z,102215.03
2022-08-08T16:13:30.874Z,102200.00
2022-08-08T16:16:09.086Z,102216.06
2022-08-08T16:18:40.869Z,102217.91
2022-08-08T16:21:26.091Z,102213.47
2022-08-08T16:23:56.911Z,102220.56
2022-08-08T16:26:34.460Z,102211.56
2022-08-08T16:29:08.956Z,102210.63
2022-08-08T16:31:41.270Z,102205.28
2022-08-08T16:34:10.336Z,102210.63
2022-08-08T16:36:42.458Z,102207.84
2022-08-08T16:39:28.062Z,102211.56
2022-08-08T16:42:01.070Z,102209.75
2022-08-08T16:44:34.248Z,102217.78
2022-08-08T16:47:40.471Z,102217.78
2022-08-08T16:50:15.589Z,102232.97
2022-08-08T16:55:00.955Z,102230.41
2022-08-08T16:55:53.446Z,102222.44
2022-08-08T16:58:25.547Z,102224.38
2022-08-08T17:00:53.836Z,102225.13
2022-08-08T17:03:25.310Z,102227.81
2022-08-08T17:06:36.032Z,102228.59
2022-08-08T17:08:57.182Z,102226.69
2022-08-08T17:11:28.074Z,102225.91
2022-08-08T17:14:17.766Z,102228.41
2022-08-08T17:16:51.863Z,102222.00
2022-08-08T17:19:25.483Z,102231.75
2022-08-08T17:21:54.484Z,102226.38
2022-08-08T17:24:27.814Z,102235.28
2022-08-08T17:26:58.040Z,102231.56
2022-08-08T17:29:26.881Z,102242.25
2022-08-08T17:31:53.824Z,102241.22
2022-08-08T17:34:48.454Z,102250.22
2022-08-08T17:37:09.272Z,102250.22
2022-08-08T17:40:03.572Z,102263.59
2022-08-08T17:42:27.954Z,102260.91
2022-08-08T17:44:55.150Z,102262.78
2022-08-08T17:47:28.223Z,102265.47
2022-08-08T17:50:06.330Z,102264.41
2022-08-08T17:52:35.530Z,102267.97
2022-08-08T17:55:05.643Z,102260.03
2022-08-08T17:57:38.427Z,102261.75
2022-08-08T18:00:13.361Z,102262.63
2022-08-08T18:02:58.094Z,102255.56
2022-08-08T18:05:48.315Z,102264.53
2022-08-08T18:08:38.386Z,102266.25
2022-08-08T18:11:17.052Z,102268.16
2022-08-08T18:13:46.335Z,102261.09
2022-08-08T18:16:20.459Z,102261.09
2022-08-08T18:18:56.398Z,102270.75
2022-08-08T18:22:00.109Z,102274.19
2022-08-08T18:24:21.459Z,102280.41
2022-08-08T18:26:54.484Z,102274.06
2022-08-08T18:29:29.750Z,102286.41
2022-08-08T18:31:59.310Z,102289.94
2022-08-08T18:34:27.772Z,102288.16
2022-08-08T18:36:55.981Z,102288.81
2022-08-08T18:39:27.816Z,102289.59
2022-08-08T18:41:59.744Z,102296.69
2022-08-08T18:44:34.733Z,102284.25
2022-08-08T18:47:03.487Z,102292.09
2022-08-08T18:49:54.803Z,102293.03
2022-08-08T18:52:22.793Z,102288.72
2022-08-08T18:54:59.781Z,102296.56
2022-08-08T18:57:31.638Z,102299.34
2022-08-08T19:00:03.106Z,102301.06
2022-08-08T19:02:30.219Z,102305.47
2022-08-08T19:04:57.435Z,102302.97
2022-08-08T19:07:29.982Z,102311.09
2022-08-08T19:10:14.653Z,102300.47
2022-08-08T19:12:44.686Z,102303.91
2022-08-08T19:15:21.791Z,102304.72
2022-08-08T19:18:32.461Z,102298.50
2022-08-08T19:20:40.213Z,102306.78
2022-08-08T19:23:10.931Z,102303.91
2022-08-08T19:26:19.750Z,102307.56
2022-08-08T19:28:25.740Z,102306.00
2022-08-08T19:31:04.244Z,102301.53
2022-08-08T19:33:51.849Z,102314.91
2022-08-08T19:36:27.507Z,102316.81
2022-08-08T19:38:56.404Z,102323.03
2022-08-08T19:41:33.651Z,102321.31
2022-08-08T19:44:12.844Z,102325.72
2022-08-08T19:46:50.855Z,102331.13
2022-08-08T19:49:19.061Z,102336.50
2022-08-08T19:51:46.282Z,102344.63
2022-08-08T19:54:16.276Z,102333.91
2022-08-08T19:56:48.811Z,102341.94
2022-08-08T19:59:22.233Z,102340.22
2022-08-08T20:02:03.090Z,102350.16
2022-08-08T20:04:33.485Z,102350.16
2022-08-08T20:08:30.226Z,102345.75
2022-08-08T20:09:56.222Z,102351.97
2022-08-08T20:12:32.911Z,102353.94
2022-08-08T20:15:14.968Z,102349.47
2022-08-08T20:17:46.349Z,102347.66
2022-08-08T20:20:19.021Z,102353.94
2022-08-08T20:22:52.599Z,102354.91
2022-08-08T20:25:26.407Z,102355.84
2022-08-08T20:27:57.414Z,102356.72
2022-08-08T20:30:53.039Z,102357.75
2022-08-08T20:35:58.190Z,102359.56
2022-08-08T20:38:32.195Z,102363.19
2022-08-08T20:41:16.961Z,102369.50
2022-08-08T20:43:49.569Z,102366.84
2022-08-08T20:46:25.336Z,102374.75
2022-08-08T20:48:58.307Z,102372.25
2022-08-08T20:51:32.378Z,102361.56
2022-08-08T20:54:13.815Z,102370.56
2022-08-08T20:57:04.595Z,102366.91
2022-08-08T20:59:29.613Z,102373.41
2022-08-08T21:02:06.670Z,102378.66
2022-08-08T21:04:36.922Z,102379.63
2022-08-08T21:07:13.240Z,102372.63
2022-08-08T21:10:02.242Z,102379.88
2022-08-08T21:12:37.002Z,102374.72
2022-08-08T21:15:09.460Z,102372.28
2022-08-08T21:17:37.295Z,102374.19
2022-08-08T21:20:06.550Z,102371.63
2022-08-08T21:22:34.312Z,102382.50
2022-08-08T21:25:02.100Z,102379.88
2022-08-08T21:28:05.358Z,102370.22
2022-08-08T21:30:21.659Z,102372.13
2022-08-08T21:32:52.059Z,102373.19
2022-08-08T21:36:15.114Z,102361.72
2022-08-08T21:38:16.481Z,102367.06
2022-08-08T21:40:55.984Z,102361.78
2022-08-08T21:43:32.974Z,102354.72
2022-08-08T21:48:07.424Z,102356.81
2022-08-08T21:48:51.778Z,102363.84
2022-08-08T21:52:09.744Z,102366.63
2022-08-08T21:54:31.914Z,102359.63
2022-08-08T21:56:56.146Z,102360.56
2022-08-08T21:59:23.279Z,102356.34
2022-08-08T22:01:52.295Z,102355.38
2022-08-08T22:04:24.781Z,102364.38
2022-08-08T22:06:53.632Z,102362.63
2022-08-08T22:09:26.910Z,102364.53
2022-08-08T22:12:09.286Z,102367.28
2022-08-08T22:14:37.132Z,102375.38
2022-08-08T22:17:05.426Z,102370.03
2022-08-08T22:20:13.046Z,102366.59
2022-08-08T22:22:24.405Z,102372.88
2022-08-08T22:24:55.841Z,102377.34
2022-08-08T22:27:38.903Z,102372.97
2022-08-08T22:30:13.546Z,102379.25
2022-08-08T22:32:40.953Z,102374.03
2022-08-08T22:35:08.651Z,102366.06
2022-08-08T22:37:53.850Z,102375.03
2022-08-08T22:40:22.061Z,102377.78
2022-08-08T22:42:49.091Z,102386.75
2022-08-08T22:45:16.873Z,102383.31
2022-08-08T22:47:47.413Z,102386.94
2022-08-08T22:50:25.883Z,102386.84
2022-08-08T22:54:28.373Z,102385.09
2022-08-08T22:55:59.007Z,102386.13
2022-08-08T22:58:33.939Z,102388.81
2022-08-08T23:01:30.564Z,102384.34
2022-08-08T23:03:55.565Z,102389.78
2022-08-08T23:06:25.121Z,102386.25
2022-08-08T23:08:55.352Z,102396.06
2022-08-08T23:11:30.969Z,102393.38
2022-08-08T23:14:15.714Z,102393.38
2022-08-08T23:16:47.011Z,102401.41
2022-08-08T23:19:21.728Z,102405.88
2022-08-08T23:21:48.828Z,102405.00
2022-08-08T23:24:22.363Z,102405.00
2022-08-08T23:26:53.117Z,102397.97
2022-08-08T23:29:25.154Z,102391.84
2022-08-08T23:31:52.322Z,102393.66
2022-08-08T23:34:19.897Z,102394.50
2022-08-08T23:36:48.206Z,102399.00
2022-08-08T23:39:15.964Z,102405.25
2022-08-08T23:41:46.063Z,102400.03
2022-08-08T23:44:18.698Z,102396.56
2022-08-08T23:49:00.077Z,102395.72
2022-08-08T23:49:34.179Z,102393.91
2022-08-08T23:52:05.956Z,102402.84
2022-08-08T23:54:43.540Z,102405.53
2022-08-08T23:57:38.812Z,102402.09
